createdAt,value
2018-07-22T00:00:49.314Z,15.03
2018-07-22T00:03:17.778Z,14.90
2018-07-22T00:05:46.270Z,28.07
2018-07-22T00:08:14.706Z,41.47
2018-07-22T00:10:43.164Z,18.87
2018-07-22T00:13:11.611Z,14.67
2018-07-22T00:15:40.046Z,14.90
2018-07-22T00:18:08.578Z,13.40
2018-07-22T00:20:37.002Z,14.73
2018-07-22T00:23:05.535Z,14.90
2018-07-22T00:25:34.014Z,15.00
2018-07-22T00:28:02.450Z,15.27
2018-07-22T00:30:30.905Z,15.60
2018-07-22T00:32:59.368Z,14.70
2018-07-22T00:35:27.845Z,15.50
2018-07-22T00:37:56.334Z,15.93
2018-07-22T00:40:24.817Z,14.67
2018-07-22T00:42:53.269Z,16.07
2018-07-22T00:45:21.718Z,15.40
2018-07-22T00:47:49.854Z,16.53
2018-07-22T00:50:18.295Z,15.23
2018-07-22T00:52:46.737Z,14.60
2018-07-22T00:55:15.182Z,15.83
2018-07-22T00:57:43.638Z,16.20
2018-07-22T01:00:12.184Z,15.67
2018-07-22T01:02:40.604Z,16.87
2018-07-22T01:05:09.037Z,15.90
2018-07-22T01:07:37.478Z,26.20
2018-07-22T01:10:06.036Z,18.03
2018-07-22T01:12:34.472Z,22.53
2018-07-22T01:15:02.616Z,25.20
2018-07-22T01:17:31.106Z,21.97
2018-07-22T01:19:59.548Z,15.87
2018-07-22T01:22:27.998Z,12.63
2018-07-22T01:24:56.429Z,14.33
2018-07-22T01:27:24.878Z,14.17
2018-07-22T01:29:53.362Z,14.10
2018-07-22T01:32:21.811Z,13.73
2018-07-22T01:34:50.281Z,14.10
2018-07-22T01:37:18.493Z,15.17
2018-07-22T01:39:46.957Z,15.77
2018-07-22T01:42:15.440Z,14.43
2018-07-22T01:44:43.889Z,14.60
2018-07-22T01:47:12.475Z,15.57
2018-07-22T01:49:40.910Z,16.70
2018-07-22T01:52:09.345Z,15.40
2018-07-22T01:54:37.772Z,15.80
2018-07-22T01:57:06.258Z,17.20
2018-07-22T01:59:34.727Z,15.73
2018-07-22T02:02:03.209Z,14.77
2018-07-22T02:04:31.678Z,15.00
2018-07-22T02:07:09.098Z,13.97
2018-07-22T02:09:37.605Z,15.60
2018-07-22T02:12:06.080Z,14.53
2018-07-22T02:14:34.521Z,14.13
2018-07-22T02:17:02.946Z,13.93
2018-07-22T02:19:31.382Z,14.83
2018-07-22T02:21:59.818Z,14.30
2018-07-22T02:24:28.265Z,13.77
2018-07-22T02:26:56.684Z,14.50
2018-07-22T02:29:25.102Z,13.50
2018-07-22T02:31:57.461Z,12.43
2018-07-22T02:34:25.933Z,13.33
2018-07-22T02:36:54.363Z,13.37
2018-07-22T02:39:22.814Z,15.80
2018-07-22T02:41:51.283Z,16.53
2018-07-22T02:44:19.745Z,17.57
2018-07-22T02:46:48.182Z,16.20
2018-07-22T02:49:16.745Z,15.23
2018-07-22T02:51:45.219Z,15.30
2018-07-22T02:54:13.654Z,13.20
2018-07-22T02:56:42.089Z,13.67
2018-07-22T02:59:10.542Z,13.50
2018-07-22T03:01:39.502Z,12.47
2018-07-22T03:04:08.697Z,13.27
2018-07-22T03:06:37.129Z,12.33
2018-07-22T03:09:07.376Z,12.50
2018-07-22T03:11:35.921Z,12.90
2018-07-22T03:14:04.398Z,12.67
2018-07-22T03:16:32.855Z,13.40
2018-07-22T03:19:01.291Z,14.53
2018-07-22T03:21:29.795Z,14.70
2018-07-22T03:23:58.419Z,12.13
2018-07-22T03:26:26.939Z,13.87
2018-07-22T03:28:55.407Z,14.43
2018-07-22T03:31:23.871Z,13.67
2018-07-22T03:33:52.306Z,14.60
2018-07-22T03:36:20.888Z,13.70
2018-07-22T03:38:49.327Z,14.30
2018-07-22T03:41:17.778Z,13.37
2018-07-22T03:43:46.246Z,13.90
2018-07-22T03:46:14.669Z,12.70
2018-07-22T03:48:43.074Z,13.20
2018-07-22T03:51:11.502Z,14.57
2018-07-22T03:53:39.950Z,12.80
2018-07-22T03:56:08.386Z,13.50
2018-07-22T03:58:36.808Z,13.23
2018-07-22T04:01:05.268Z,13.17
2018-07-22T04:03:33.721Z,12.67
2018-07-22T04:06:02.155Z,13.07
2018-07-22T04:08:30.726Z,14.97
2018-07-22T04:10:59.327Z,14.87
2018-07-22T04:13:27.820Z,14.47
2018-07-22T04:15:56.261Z,16.67
2018-07-22T04:18:24.713Z,15.27
2018-07-22T04:20:53.155Z,15.17
2018-07-22T04:23:21.577Z,14.60
2018-07-22T04:25:49.999Z,14.83
2018-07-22T04:28:18.438Z,14.37
2018-07-22T04:30:46.858Z,14.10
2018-07-22T04:33:15.314Z,14.60
2018-07-22T04:35:43.878Z,15.53
2018-07-22T04:38:12.327Z,14.23
2018-07-22T04:40:40.762Z,15.57
2018-07-22T04:43:09.198Z,15.40
2018-07-22T04:45:37.627Z,16.33
2018-07-22T04:48:06.133Z,18.20
2018-07-22T04:50:34.573Z,20.20
2018-07-22T04:53:03.010Z,19.20
2018-07-22T04:55:31.481Z,21.13
2018-07-22T04:57:59.918Z,21.97
2018-07-22T05:00:28.393Z,21.07
2018-07-22T05:02:56.831Z,21.57
2018-07-22T05:05:25.270Z,21.20
2018-07-22T05:07:53.706Z,20.27
2018-07-22T05:10:22.166Z,21.70
2018-07-22T05:12:50.617Z,21.73
2018-07-22T05:15:19.088Z,18.57
2018-07-22T05:17:47.540Z,20.80
2018-07-22T05:20:15.973Z,18.77
2018-07-22T05:22:44.460Z,19.87
2018-07-22T05:25:12.886Z,17.60
2018-07-22T05:27:41.342Z,20.63
2018-07-22T05:30:09.834Z,20.40
2018-07-22T05:32:38.298Z,19.10
2018-07-22T05:35:06.770Z,16.30
2018-07-22T05:37:35.194Z,16.20
2018-07-22T05:40:03.707Z,15.43
2018-07-22T05:42:32.166Z,17.27
2018-07-22T05:45:00.599Z,14.63
2018-07-22T05:47:29.046Z,15.80
2018-07-22T05:49:57.510Z,15.30
2018-07-22T05:52:25.925Z,17.87
2018-07-22T05:54:54.358Z,16.40
2018-07-22T05:57:22.783Z,16.53
2018-07-22T05:59:51.290Z,16.97
2018-07-22T06:02:19.777Z,13.60
2018-07-22T06:04:48.451Z,14.40
2018-07-22T06:07:16.878Z,16.23
2018-07-22T06:09:45.450Z,15.80
2018-07-22T06:12:13.942Z,15.30
2018-07-22T06:14:42.366Z,14.30
2018-07-22T06:17:10.778Z,15.53
2018-07-22T06:19:39.202Z,13.80
2018-07-22T06:22:07.662Z,14.33
2018-07-22T06:24:36.107Z,14.70
2018-07-22T06:27:04.723Z,14.90
2018-07-22T06:29:33.172Z,16.80
2018-07-22T06:32:01.610Z,16.67
2018-07-22T06:34:30.057Z,17.40
2018-07-22T06:36:58.534Z,16.53
2018-07-22T06:39:28.087Z,16.77
2018-07-22T06:41:56.533Z,16.17
2018-07-22T06:44:25.013Z,16.80
2018-07-22T06:46:53.509Z,16.00
2018-07-22T06:49:21.936Z,26.53
2018-07-22T06:51:50.378Z,16.50
2018-07-22T06:54:18.902Z,15.37
2018-07-22T06:56:47.418Z,16.60
2018-07-22T06:59:15.918Z,16.03
2018-07-22T07:01:44.562Z,17.50
2018-07-22T07:04:12.982Z,15.70
2018-07-22T07:06:41.414Z,16.90
2018-07-22T07:09:11.613Z,14.70
2018-07-22T07:11:40.381Z,14.50
2018-07-22T07:14:10.407Z,16.27
2018-07-22T07:16:38.530Z,14.37
2018-07-22T07:19:06.982Z,15.23
2018-07-22T07:21:35.409Z,15.53
2018-07-22T07:24:03.861Z,14.57
2018-07-22T07:26:32.331Z,14.67
2018-07-22T07:29:00.786Z,14.03
2018-07-22T07:31:29.263Z,13.97
2018-07-22T07:33:57.762Z,14.73
2018-07-22T07:36:26.353Z,16.37
2018-07-22T07:38:54.830Z,16.30
2018-07-22T07:41:23.254Z,15.43
2018-07-22T07:43:52.725Z,14.10
2018-07-22T07:46:21.182Z,15.13
2018-07-22T07:48:49.688Z,16.23
2018-07-22T07:51:18.121Z,15.03
2018-07-22T07:53:51.682Z,15.73
2018-07-22T07:56:20.153Z,18.33
2018-07-22T07:58:48.736Z,15.47
2018-07-22T08:01:17.181Z,14.23
2018-07-22T08:03:45.623Z,13.97
2018-07-22T08:06:14.076Z,14.33
2018-07-22T08:08:42.521Z,12.97
2018-07-22T08:11:11.002Z,15.33
2018-07-22T08:13:39.444Z,13.43
2018-07-22T08:16:07.909Z,14.27
2018-07-22T08:18:36.348Z,14.60
2018-07-22T08:21:04.985Z,14.30
2018-07-22T08:23:33.435Z,14.37
2018-07-22T08:26:01.914Z,14.97
2018-07-22T08:28:41.534Z,14.97
2018-07-22T08:31:09.993Z,14.53
2018-07-22T08:33:38.426Z,14.33
2018-07-22T08:36:06.931Z,14.07
2018-07-22T08:38:35.388Z,15.70
2018-07-22T08:41:03.856Z,14.73
2018-07-22T08:43:32.265Z,14.17
2018-07-22T08:46:00.731Z,15.10
2018-07-22T08:48:29.158Z,14.37
2018-07-22T08:50:57.623Z,13.50
2018-07-22T08:53:26.089Z,13.10
2018-07-22T08:55:54.524Z,12.47
2018-07-22T08:58:22.973Z,13.30
2018-07-22T09:00:51.442Z,14.03
2018-07-22T09:03:19.865Z,13.13
2018-07-22T09:05:48.319Z,14.00
2018-07-22T09:08:16.797Z,13.87
2018-07-22T09:10:45.262Z,12.10
2018-07-22T09:13:13.891Z,12.23
2018-07-22T09:15:42.317Z,14.00
2018-07-22T09:18:10.934Z,13.70
2018-07-22T09:20:39.369Z,13.10
2018-07-22T09:23:07.922Z,13.53
2018-07-22T09:25:36.518Z,14.13
2018-07-22T09:28:04.968Z,13.67
2018-07-22T09:30:33.466Z,13.87
2018-07-22T09:33:01.910Z,14.70
2018-07-22T09:35:30.354Z,13.33
2018-07-22T09:37:58.769Z,17.23
2018-07-22T09:40:27.208Z,16.00
2018-07-22T09:42:55.655Z,14.23
2018-07-22T09:45:24.134Z,11.87
2018-07-22T09:47:53.615Z,13.80
2018-07-22T09:50:22.113Z,12.70
2018-07-22T09:52:50.730Z,12.57
2018-07-22T09:55:19.181Z,15.90
2018-07-22T09:57:47.660Z,14.30
2018-07-22T10:00:20.434Z,13.80
2018-07-22T10:02:48.942Z,13.23
2018-07-22T10:05:17.352Z,11.80
2018-07-22T10:07:45.789Z,12.70
2018-07-22T10:10:14.267Z,12.00
2018-07-22T10:12:42.729Z,12.00
2018-07-22T10:15:11.231Z,12.73
2018-07-22T10:17:40.116Z,11.73
2018-07-22T10:20:08.516Z,11.77
2018-07-22T10:22:36.994Z,12.77
2018-07-22T10:25:05.465Z,11.90
2018-07-22T10:27:33.955Z,13.80
2018-07-22T10:30:04.830Z,11.90
2018-07-22T10:32:33.335Z,13.37
2018-07-22T10:35:01.781Z,12.20
2018-07-22T10:37:30.254Z,13.00
2018-07-22T10:39:58.687Z,12.00
2018-07-22T10:42:27.118Z,10.53
2018-07-22T10:44:55.566Z,11.70
2018-07-22T10:47:24.000Z,10.70
2018-07-22T10:49:52.458Z,10.97
2018-07-22T10:52:21.001Z,10.47
2018-07-22T10:54:49.438Z,9.77
2018-07-22T10:57:17.905Z,10.33
2018-07-22T10:59:46.450Z,11.10
2018-07-22T11:02:14.876Z,11.00
2018-07-22T11:04:43.318Z,10.10
2018-07-22T11:07:11.853Z,9.80
2018-07-22T11:09:40.334Z,10.80
2018-07-22T11:12:08.785Z,11.20
2018-07-22T11:14:37.265Z,10.97
2018-07-22T11:17:05.766Z,11.70
2018-07-22T11:19:34.226Z,11.93
2018-07-22T11:22:02.721Z,9.27
2018-07-22T11:24:31.179Z,11.80
2018-07-22T11:26:59.605Z,10.77
2018-07-22T11:29:28.087Z,10.97
2018-07-22T11:31:56.549Z,9.90
2018-07-22T11:34:24.982Z,10.47
2018-07-22T11:36:53.474Z,10.10
2018-07-22T11:39:21.885Z,10.90
2018-07-22T11:41:50.313Z,9.43
2018-07-22T11:44:18.726Z,9.37
2018-07-22T11:46:47.254Z,9.93
2018-07-22T11:49:15.690Z,10.70
2018-07-22T11:51:44.128Z,8.90
2018-07-22T11:54:12.555Z,8.70
2018-07-22T11:56:41.003Z,9.20
2018-07-22T11:59:09.465Z,8.83
2018-07-22T12:01:37.978Z,9.00
2018-07-22T12:04:07.077Z,9.40
2018-07-22T12:06:35.601Z,9.60
2018-07-22T12:09:06.323Z,10.70
2018-07-22T12:11:34.735Z,13.13
2018-07-22T12:14:03.521Z,9.00
2018-07-22T12:16:32.017Z,9.93
2018-07-22T12:19:00.706Z,9.30
2018-07-22T12:21:29.249Z,8.60
2018-07-22T12:23:58.268Z,9.20
2018-07-22T12:26:26.622Z,9.70
2018-07-22T12:28:55.106Z,9.33
2018-07-22T12:31:23.537Z,8.40
2018-07-22T12:33:52.307Z,8.40
2018-07-22T12:36:20.780Z,8.03
2018-07-22T12:38:49.326Z,7.90
2018-07-22T12:41:17.781Z,10.13
2018-07-22T12:43:46.222Z,9.07
2018-07-22T12:46:14.348Z,9.40
2018-07-22T12:48:42.820Z,8.57
2018-07-22T12:51:11.298Z,9.07
2018-07-22T12:53:39.931Z,8.77
2018-07-22T12:56:08.627Z,7.77
2018-07-22T12:58:37.378Z,7.67
2018-07-22T13:01:06.006Z,9.70
2018-07-22T13:03:34.466Z,9.43
2018-07-22T13:06:02.977Z,8.17
2018-07-22T13:08:31.421Z,9.40
2018-07-22T13:10:59.845Z,7.90
2018-07-22T13:13:28.322Z,8.60
2018-07-22T13:15:56.754Z,9.73
2018-07-22T13:18:25.242Z,8.40
2018-07-22T13:20:53.665Z,8.50
2018-07-22T13:23:22.769Z,9.30
2018-07-22T13:25:51.221Z,9.00
2018-07-22T13:28:19.814Z,8.90
2018-07-22T13:30:48.245Z,8.77
2018-07-22T13:33:16.757Z,9.00
2018-07-22T13:35:45.199Z,10.03
2018-07-22T13:38:13.857Z,10.20
2018-07-22T13:40:42.290Z,9.27
2018-07-22T13:43:10.796Z,9.20
2018-07-22T13:45:39.248Z,8.90
2018-07-22T13:48:07.733Z,8.70
2018-07-22T13:50:36.182Z,9.33
2018-07-22T13:53:04.614Z,9.83
2018-07-22T13:55:34.632Z,8.33
2018-07-22T13:58:03.065Z,8.77
2018-07-22T14:00:31.546Z,9.97
2018-07-22T14:02:59.990Z,9.63
2018-07-22T14:05:28.579Z,8.00
2018-07-22T14:07:57.006Z,8.17
2018-07-22T14:10:25.490Z,10.20
2018-07-22T14:12:53.918Z,8.60
2018-07-22T14:15:22.362Z,8.77
2018-07-22T14:17:50.851Z,8.93
2018-07-22T14:20:19.265Z,8.90
2018-07-22T14:22:47.735Z,8.90
2018-07-22T14:25:16.162Z,9.70
2018-07-22T14:27:44.813Z,9.60
2018-07-22T14:30:13.230Z,9.37
2018-07-22T14:32:45.916Z,9.37
2018-07-22T14:35:15.859Z,9.60
2018-07-22T14:37:45.283Z,9.80
2018-07-22T14:40:15.279Z,9.60
2018-07-22T14:42:45.884Z,8.50
2018-07-22T14:45:19.081Z,9.10
2018-07-22T14:47:47.640Z,8.30
2018-07-22T14:50:16.477Z,8.20
2018-07-22T14:52:45.155Z,9.03
2018-07-22T14:55:14.023Z,11.00
2018-07-22T14:57:43.766Z,12.30
2018-07-22T15:00:12.553Z,8.63
2018-07-22T15:02:40.978Z,8.47
2018-07-22T15:05:09.570Z,8.47
2018-07-22T15:07:38.198Z,9.47
2018-07-22T15:10:06.673Z,8.50
2018-07-22T15:12:35.112Z,8.70
2018-07-22T15:15:03.541Z,9.40
2018-07-22T15:17:32.033Z,9.03
2018-07-22T15:20:00.482Z,7.83
2018-07-22T15:22:28.920Z,8.30
2018-07-22T15:24:57.460Z,8.40
2018-07-22T15:27:26.306Z,7.80
2018-07-22T15:29:55.255Z,9.00
2018-07-22T15:32:24.002Z,6.97
2018-07-22T15:34:52.565Z,8.20
2018-07-22T15:37:21.174Z,7.40
2018-07-22T15:39:50.130Z,7.70
2018-07-22T15:42:18.662Z,7.77
2018-07-22T15:44:47.073Z,7.73
2018-07-22T15:47:15.550Z,9.27
2018-07-22T15:49:44.637Z,7.20
2018-07-22T15:52:13.581Z,7.43
2018-07-22T15:54:42.394Z,7.50
2018-07-22T15:57:11.071Z,6.77
2018-07-22T15:59:39.807Z,6.47
2018-07-22T16:02:08.478Z,7.20
2018-07-22T16:04:37.135Z,7.97
2018-07-22T16:07:05.850Z,8.07
2018-07-22T16:09:34.085Z,7.57
2018-07-22T16:12:02.766Z,7.80
2018-07-22T16:14:31.214Z,8.90
2018-07-22T16:16:59.821Z,13.30
2018-07-22T16:19:28.460Z,8.87
2018-07-22T16:21:56.996Z,7.40
2018-07-22T16:24:25.743Z,9.13
2018-07-22T16:26:54.202Z,8.20
2018-07-22T16:29:22.720Z,9.73
2018-07-22T16:31:51.210Z,8.60
2018-07-22T16:34:19.734Z,7.33
2018-07-22T16:36:48.716Z,7.73
2018-07-22T16:39:17.200Z,8.80
2018-07-22T16:41:45.760Z,7.43
2018-07-22T16:44:14.503Z,8.00
2018-07-22T16:46:43.138Z,7.80
2018-07-22T16:49:11.798Z,6.90
2018-07-22T16:51:40.377Z,7.10
2018-07-22T16:54:08.908Z,7.00
2018-07-22T16:56:37.341Z,6.53
2018-07-22T16:59:05.966Z,7.80
2018-07-22T17:01:34.514Z,7.40
2018-07-22T17:04:03.037Z,7.17
2018-07-22T17:06:31.533Z,7.47
2018-07-22T17:08:59.922Z,6.80
2018-07-22T17:11:28.495Z,6.90
2018-07-22T17:13:56.982Z,7.70
2018-07-22T17:16:26.274Z,8.27
2018-07-22T17:18:54.750Z,7.80
2018-07-22T17:21:23.523Z,8.13
2018-07-22T17:23:52.069Z,6.93
2018-07-22T17:26:20.527Z,7.77
2018-07-22T17:28:49.099Z,7.23
2018-07-22T17:31:17.934Z,8.10
2018-07-22T17:33:46.574Z,7.40
2018-07-22T17:36:15.023Z,7.60
2018-07-22T17:38:43.473Z,7.57
2018-07-22T17:41:11.983Z,7.10
2018-07-22T17:43:40.563Z,7.20
2018-07-22T17:46:09.005Z,7.93
2018-07-22T17:48:37.562Z,9.17
2018-07-22T17:51:06.512Z,6.70
2018-07-22T17:53:35.034Z,6.90
2018-07-22T17:56:03.545Z,8.20
2018-07-22T17:58:31.981Z,7.17
2018-07-22T18:01:00.446Z,7.60
2018-07-22T18:03:30.069Z,6.87
2018-07-22T18:05:58.526Z,7.77
2018-07-22T18:08:26.974Z,7.33
2018-07-22T18:10:56.805Z,8.33
2018-07-22T18:13:25.656Z,7.67
2018-07-22T18:15:58.036Z,7.80
2018-07-22T18:18:26.446Z,8.30
2018-07-22T18:21:04.829Z,7.37
2018-07-22T18:23:33.278Z,7.10
2018-07-22T18:26:01.714Z,7.47
2018-07-22T18:28:30.153Z,8.03
2018-07-22T18:30:58.590Z,6.60
2018-07-22T18:33:26.723Z,6.40
2018-07-22T18:35:55.284Z,7.10
2018-07-22T18:38:23.698Z,6.10
2018-07-22T18:40:52.139Z,6.93
2018-07-22T18:43:20.562Z,6.60
2018-07-22T18:45:49.039Z,7.23
2018-07-22T18:48:17.516Z,7.27
2018-07-22T18:53:36.382Z,7.57
2018-07-22T18:56:04.841Z,7.70
2018-07-22T18:58:33.282Z,6.50
2018-07-22T19:01:01.722Z,7.33
2018-07-22T19:03:30.155Z,8.23
2018-07-22T19:05:58.601Z,6.80
2018-07-22T19:08:27.085Z,7.13
2018-07-22T19:10:55.881Z,7.90
2018-07-22T19:13:24.337Z,7.27
2018-07-22T19:15:52.775Z,7.60
2018-07-22T19:18:21.206Z,6.57
2018-07-22T19:20:49.633Z,7.40
2018-07-22T19:23:18.066Z,6.57
2018-07-22T19:25:46.490Z,6.90
2018-07-22T19:28:14.898Z,6.60
2018-07-22T19:30:43.380Z,6.23
2018-07-22T19:33:11.801Z,8.37
2018-07-22T19:35:40.238Z,6.10
2018-07-22T19:38:08.756Z,6.43
2018-07-22T19:40:37.382Z,7.03
2018-07-22T19:43:11.816Z,7.40
2018-07-22T19:45:40.286Z,8.70
2018-07-22T19:48:08.794Z,7.90
2018-07-22T19:50:37.234Z,7.50
2018-07-22T19:53:05.714Z,7.90
2018-07-22T19:55:34.362Z,8.03
2018-07-22T19:58:02.782Z,7.63
2018-07-22T20:00:31.225Z,8.00
2018-07-22T20:02:59.361Z,7.57
2018-07-22T20:05:27.758Z,8.07
2018-07-22T20:07:56.162Z,7.67
2018-07-22T20:10:24.566Z,7.80
2018-07-22T20:12:53.031Z,7.70
2018-07-22T20:15:21.479Z,8.97
2018-07-22T20:17:49.889Z,9.10
2018-07-22T20:20:18.315Z,7.83
2018-07-22T20:22:46.735Z,8.57
2018-07-22T20:25:16.007Z,7.77
2018-07-22T20:27:44.494Z,7.53
2018-07-22T20:30:12.901Z,8.40
2018-07-22T20:32:41.337Z,7.90
2018-07-22T20:35:09.769Z,8.07
2018-07-22T20:37:38.188Z,8.80
2018-07-22T20:40:06.621Z,8.07
2018-07-22T20:42:35.123Z,8.50
2018-07-22T20:45:03.657Z,8.00
2018-07-22T20:47:32.258Z,8.07
2018-07-22T20:50:00.678Z,8.77
2018-07-22T20:52:29.396Z,9.50
2018-07-22T20:54:57.840Z,10.10
2018-07-22T20:57:26.298Z,9.60
2018-07-22T20:59:54.754Z,9.17
2018-07-22T21:02:23.177Z,8.87
2018-07-22T21:04:51.621Z,8.93
2018-07-22T21:07:20.038Z,9.47
2018-07-22T21:09:48.463Z,8.43
2018-07-22T21:13:20.938Z,9.30
2018-07-22T21:15:49.556Z,9.33
2018-07-22T21:18:17.961Z,9.73
2018-07-22T21:20:46.369Z,9.80
2018-07-22T21:23:14.794Z,8.97
2018-07-22T21:25:43.293Z,9.20
2018-07-22T21:28:11.718Z,9.80
2018-07-22T21:30:40.162Z,8.83
2018-07-22T21:33:08.626Z,10.97
2018-07-22T21:35:37.084Z,9.20
2018-07-22T21:38:05.537Z,10.07
2018-07-22T21:40:34.013Z,10.17
2018-07-22T21:43:02.479Z,10.13
2018-07-22T21:45:30.926Z,10.30
2018-07-22T21:47:59.386Z,10.40
2018-07-22T21:50:28.475Z,10.17
2018-07-22T21:52:57.033Z,10.63
2018-07-22T21:55:25.591Z,10.10
2018-07-22T21:57:54.139Z,11.47
2018-07-22T22:00:27.826Z,9.20
2018-07-22T22:02:56.314Z,9.30
2018-07-22T22:05:24.825Z,10.07
2018-07-22T22:07:53.410Z,10.13
2018-07-22T22:10:21.991Z,10.70
2018-07-22T22:12:50.982Z,10.80
2018-07-22T22:15:24.426Z,9.70
2018-07-22T22:17:53.798Z,10.53
2018-07-22T22:20:22.263Z,10.70
2018-07-22T22:22:50.689Z,10.57
2018-07-22T22:25:19.333Z,10.80
2018-07-22T22:27:47.913Z,11.27
2018-07-22T22:30:17.221Z,10.53
2018-07-22T22:32:45.930Z,10.97
2018-07-22T22:35:14.461Z,11.67
2018-07-22T22:37:43.478Z,10.87
2018-07-22T22:40:12.892Z,10.40
2018-07-22T22:42:42.382Z,11.10
2018-07-22T22:45:10.917Z,9.53
2018-07-22T22:47:39.374Z,10.40
2018-07-22T22:50:07.915Z,10.73
2018-07-22T22:52:36.334Z,11.30
2018-07-22T22:55:04.848Z,10.20
2018-07-22T22:57:33.363Z,10.67
2018-07-22T23:00:01.891Z,11.93
2018-07-22T23:02:34.309Z,12.10
2018-07-22T23:05:03.213Z,12.03
2018-07-22T23:07:31.330Z,11.60
2018-07-22T23:09:59.770Z,11.83
2018-07-22T23:12:27.885Z,12.60
2018-07-22T23:14:56.431Z,12.23
2018-07-22T23:17:24.848Z,12.30
2018-07-22T23:19:53.285Z,12.00
2018-07-22T23:22:21.736Z,11.60
2018-07-22T23:24:51.165Z,11.53
2018-07-22T23:27:20.135Z,11.80
2018-07-22T23:29:48.955Z,12.23
2018-07-22T23:32:18.637Z,10.23
2018-07-22T23:34:47.625Z,12.07
2018-07-22T23:37:16.729Z,11.40
2018-07-22T23:39:45.673Z,11.10
2018-07-22T23:42:14.608Z,12.57
2018-07-22T23:44:43.934Z,12.00
2018-07-22T23:47:12.395Z,10.83
2018-07-22T23:49:40.527Z,11.10
2018-07-22T23:52:08.961Z,10.97
2018-07-22T23:54:37.374Z,11.93
2018-07-22T23:57:05.849Z,11.07
2018-07-22T23:59:34.345Z,12.47
